KSEG/SEG METAR and TAF weather

Enter ICAO airport designator
Station Type Date Time Source
KSEG METAR 2022/12/04 10:53 UTC NOAA

KSEG 041053Z AUTO 00000KT 10SM CLR M02/M06 A3026 RMK AO2 SLP250 T10171056 $


Station Type Date Time Source
KSEG Decoded METAR 2022/12/04 10:53 UTC NOAA

SELINSGROVE PENN VALLEY AIRPORT , PA, United States (KSEG) 40-49N 076-52W 134M
Dec 04, 2022 - 05:53 AM EST / 2022.12.04 1053 UTC
Wind: Calm:0
Visibility: 10 mile(s):0
Sky conditions: clear
Temperature: 28.9 F (-1.7 C)
Dew Point: 21.9 F (-5.6 C)
Relative Humidity: 74%
Pressure (altimeter): 30.26 in. Hg (1024 hPa)
ob: KSEG 041053Z AUTO 00000KT 10SM CLR M02/M06 A3026 RMK AO2 SLP250 T10171056
cycle: 11

Station Type Date Time Source
KSEG TAF UTC NOAA

Error!

Example: see airport list